createdAt,value
2019-01-29T00:01:23.695Z,45.10
2019-01-29T00:03:51.377Z,46.48
2019-01-29T00:06:18.258Z,42.80
2019-01-29T00:08:44.955Z,45.30
2019-01-29T00:11:11.810Z,38.60
2019-01-29T00:13:38.637Z,46.10
2019-01-29T00:16:05.303Z,47.33
2019-01-29T00:18:31.996Z,48.20
2019-01-29T00:20:58.676Z,45.17
2019-01-29T00:23:25.316Z,45.17
2019-01-29T00:25:52.225Z,54.63
2019-01-29T00:28:18.996Z,50.13
2019-01-29T00:30:46.939Z,42.00
2019-01-29T00:33:14.139Z,37.70
2019-01-29T00:35:41.846Z,45.87
2019-01-29T00:38:11.145Z,43.72
2019-01-29T00:40:39.367Z,38.78
2019-01-29T00:43:06.196Z,40.10
2019-01-29T00:45:33.039Z,49.63
2019-01-29T00:47:59.642Z,39.20
2019-01-29T00:50:26.363Z,43.80
2019-01-29T00:52:53.313Z,49.50
2019-01-29T00:55:20.023Z,43.30
2019-01-29T00:57:46.710Z,44.57
2019-01-29T01:00:13.323Z,43.80
2019-01-29T01:02:41.226Z,36.97
2019-01-29T01:05:07.945Z,40.50
2019-01-29T01:07:34.754Z,41.33
2019-01-29T01:10:01.415Z,37.17
2019-01-29T01:12:29.080Z,42.00
2019-01-29T01:14:55.761Z,40.27
2019-01-29T01:17:22.724Z,39.80
2019-01-29T01:19:49.441Z,43.53
2019-01-29T01:22:16.109Z,40.92
2019-01-29T01:24:42.826Z,43.40
2019-01-29T01:27:09.701Z,40.83
2019-01-29T01:29:36.324Z,43.00
2019-01-29T01:32:02.986Z,54.30
2019-01-29T01:34:29.632Z,44.17
2019-01-29T01:36:57.582Z,38.35
2019-01-29T01:39:24.570Z,41.93
2019-01-29T01:41:51.201Z,50.93
2019-01-29T01:44:17.841Z,38.40
2019-01-29T01:46:44.849Z,37.75
2019-01-29T01:49:13.344Z,39.16
2019-01-29T01:51:40.079Z,42.47
2019-01-29T01:54:07.509Z,39.83
2019-01-29T01:56:37.488Z,37.97
2019-01-29T01:59:04.260Z,39.07
2019-01-29T02:01:30.919Z,41.83
2019-01-29T02:03:57.596Z,42.50
2019-01-29T02:06:24.557Z,42.20
2019-01-29T02:08:51.200Z,37.60
2019-01-29T02:11:17.989Z,44.18
2019-01-29T02:13:44.899Z,36.83
2019-01-29T02:16:11.551Z,34.97
2019-01-29T02:18:38.169Z,34.43
2019-01-29T02:21:05.350Z,31.33
2019-01-29T02:23:32.278Z,37.13
2019-01-29T02:25:58.936Z,35.43
2019-01-29T02:28:25.778Z,44.23
2019-01-29T02:30:52.709Z,40.80
2019-01-29T02:33:19.601Z,39.53
2019-01-29T02:35:46.549Z,38.73
2019-01-29T02:43:38.157Z,32.48
2019-01-29T02:46:09.703Z,33.03
2019-01-29T02:48:36.427Z,32.30
2019-01-29T02:51:03.260Z,36.67
2019-01-29T02:53:33.122Z,39.07
2019-01-29T02:56:00.834Z,36.37
2019-01-29T02:58:27.678Z,33.28
2019-01-29T03:00:54.935Z,32.97
2019-01-29T03:03:24.512Z,31.57
2019-01-29T03:05:52.882Z,31.20
2019-01-29T03:08:19.906Z,30.77
2019-01-29T03:10:46.859Z,31.13
2019-01-29T03:13:18.098Z,32.57
2019-01-29T03:15:46.403Z,28.75
2019-01-29T03:18:13.035Z,39.03
2019-01-29T03:20:42.920Z,32.00
2019-01-29T03:23:13.722Z,33.93
2019-01-29T03:25:43.169Z,34.90
2019-01-29T03:28:12.086Z,29.67
2019-01-29T03:30:41.154Z,33.07
2019-01-29T03:33:12.346Z,26.47
2019-01-29T03:35:46.917Z,32.27
2019-01-29T03:38:12.416Z,26.87
2019-01-29T03:40:39.870Z,29.60
2019-01-29T03:43:09.502Z,24.83
2019-01-29T03:45:36.322Z,24.73
2019-01-29T03:48:05.849Z,24.03
2019-01-29T03:50:33.600Z,27.80
2019-01-29T03:53:03.551Z,27.10
2019-01-29T03:55:30.489Z,23.50
2019-01-29T03:57:57.262Z,22.50
2019-01-29T04:00:25.232Z,23.60
2019-01-29T04:02:53.956Z,20.17
2019-01-29T04:05:22.124Z,22.43
2019-01-29T04:07:48.859Z,20.77
2019-01-29T04:10:19.252Z,19.98
2019-01-29T04:12:50.575Z,21.48
2019-01-29T04:15:19.679Z,20.17
2019-01-29T04:17:49.651Z,19.90
2019-01-29T04:20:20.952Z,19.55
2019-01-29T04:22:54.473Z,23.57
2019-01-29T04:25:22.584Z,27.32
2019-01-29T04:27:51.458Z,19.93
2019-01-29T04:30:21.268Z,19.63
2019-01-29T04:32:50.525Z,18.93
2019-01-29T04:35:18.362Z,23.53
2019-01-29T04:37:46.704Z,20.97
2019-01-29T04:40:13.373Z,20.23
2019-01-29T04:42:40.017Z,25.43
2019-01-29T04:45:06.704Z,22.33
2019-01-29T04:47:33.343Z,24.97
2019-01-29T04:50:00.234Z,28.07
2019-01-29T04:52:27.171Z,26.40
2019-01-29T04:54:54.037Z,23.12
2019-01-29T04:57:20.793Z,20.70
2019-01-29T04:59:47.751Z,21.40
2019-01-29T05:02:14.409Z,23.33
2019-01-29T05:04:41.421Z,26.07
2019-01-29T05:07:08.311Z,25.37
2019-01-29T05:09:35.557Z,22.00
2019-01-29T05:12:02.553Z,22.57
2019-01-29T05:14:29.145Z,23.33
2019-01-29T05:16:55.798Z,26.27
2019-01-29T05:19:22.760Z,26.07
2019-01-29T05:21:49.715Z,25.25
2019-01-29T05:24:18.136Z,26.92
2019-01-29T05:26:44.852Z,21.13
2019-01-29T05:29:11.789Z,26.15
2019-01-29T05:31:38.432Z,21.20
2019-01-29T05:34:05.324Z,26.30
2019-01-29T05:36:31.926Z,24.57
2019-01-29T05:38:58.642Z,23.07
2019-01-29T05:41:25.373Z,21.90
2019-01-29T05:43:52.266Z,21.03
2019-01-29T05:46:18.904Z,22.37
2019-01-29T05:48:45.824Z,19.42
2019-01-29T05:51:12.471Z,18.93
2019-01-29T05:53:39.126Z,18.80
2019-01-29T05:56:06.291Z,23.17
2019-01-29T05:58:33.129Z,21.40
2019-01-29T06:01:00.142Z,24.02
2019-01-29T06:03:27.153Z,25.55
2019-01-29T06:05:54.103Z,23.57
2019-01-29T06:08:21.550Z,22.87
2019-01-29T06:10:48.320Z,28.40
2019-01-29T06:13:15.081Z,26.63
2019-01-29T06:15:41.703Z,21.10
2019-01-29T06:18:08.463Z,24.67
2019-01-29T06:20:35.424Z,21.27
2019-01-29T06:23:02.198Z,26.00
2019-01-29T06:25:28.928Z,22.97
2019-01-29T06:27:55.892Z,22.63
2019-01-29T06:30:22.853Z,18.50
2019-01-29T06:32:49.466Z,24.20
2019-01-29T06:35:16.079Z,24.70
2019-01-29T06:37:43.009Z,21.93
2019-01-29T06:40:11.373Z,25.52
2019-01-29T06:42:38.145Z,22.53
2019-01-29T06:45:08.794Z,28.97
2019-01-29T06:47:37.385Z,23.83
2019-01-29T06:50:05.701Z,25.80
2019-01-29T06:52:32.783Z,26.00
2019-01-29T06:55:01.318Z,31.13
2019-01-29T06:57:32.612Z,27.63
2019-01-29T06:59:59.850Z,23.07
2019-01-29T07:02:27.753Z,23.97
2019-01-29T07:04:54.389Z,24.63
2019-01-29T07:07:23.626Z,22.63
2019-01-29T07:09:53.181Z,21.80
2019-01-29T07:12:19.861Z,21.87
2019-01-29T07:14:46.960Z,26.30
2019-01-29T07:17:13.835Z,26.47
2019-01-29T07:19:43.528Z,26.70
2019-01-29T07:22:14.708Z,23.47
2019-01-29T07:24:44.247Z,24.80
2019-01-29T07:27:13.670Z,26.50
2019-01-29T07:29:40.649Z,23.57
2019-01-29T07:32:09.823Z,21.40
2019-01-29T07:34:38.666Z,20.13
2019-01-29T07:37:09.124Z,20.87
2019-01-29T07:39:39.642Z,22.20
2019-01-29T07:42:09.316Z,20.13
2019-01-29T07:44:39.723Z,17.42
2019-01-29T07:47:09.629Z,20.73
2019-01-29T07:49:38.473Z,20.73
2019-01-29T07:52:05.536Z,16.47
2019-01-29T07:54:35.127Z,16.85
2019-01-29T07:57:02.170Z,14.93
2019-01-29T07:59:33.193Z,16.33
2019-01-29T08:01:58.230Z,16.25
2019-01-29T08:04:25.401Z,14.47
2019-01-29T08:06:52.232Z,16.23
2019-01-29T08:09:19.888Z,12.65
2019-01-29T08:11:46.630Z,14.13
2019-01-29T08:14:13.525Z,17.20
2019-01-29T08:16:41.417Z,14.90
2019-01-29T08:19:08.944Z,12.40
2019-01-29T08:21:35.652Z,28.80
2019-01-29T08:24:02.561Z,21.20
2019-01-29T08:26:29.611Z,20.50
2019-01-29T08:28:56.217Z,21.90
2019-01-29T08:31:23.085Z,22.73
2019-01-29T08:33:51.798Z,22.47
2019-01-29T08:36:20.325Z,21.82
2019-01-29T08:38:47.095Z,17.93
2019-01-29T08:41:14.048Z,22.93
2019-01-29T08:43:40.844Z,19.40
2019-01-29T08:46:07.879Z,19.30
2019-01-29T08:48:34.745Z,18.75
2019-01-29T08:51:01.497Z,17.57
2019-01-29T08:53:28.226Z,17.85
2019-01-29T08:55:55.058Z,17.90
2019-01-29T08:58:26.948Z,19.37
2019-01-29T09:00:50.549Z,16.20
2019-01-29T09:03:17.263Z,15.23
2019-01-29T09:05:44.054Z,16.20
2019-01-29T09:08:13.069Z,15.40
2019-01-29T09:10:39.592Z,13.70
2019-01-29T09:13:06.277Z,14.83
2019-01-29T09:15:33.280Z,15.13
2019-01-29T09:18:00.188Z,11.90
2019-01-29T09:20:26.854Z,12.20
2019-01-29T09:22:53.460Z,12.77
2019-01-29T09:25:22.666Z,7.70
2019-01-29T09:27:50.602Z,10.60
2019-01-29T09:30:17.339Z,5.47
2019-01-29T09:32:44.277Z,1.83
2019-01-29T09:35:10.947Z,1.93
2019-01-29T09:37:37.643Z,2.53
2019-01-29T09:40:04.341Z,0.90
2019-01-29T09:42:31.243Z,1.30
2019-01-29T09:44:57.904Z,1.20
2019-01-29T09:47:24.620Z,0.95
2019-01-29T09:49:51.456Z,0.97
2019-01-29T09:52:18.266Z,1.80
2019-01-29T09:54:45.094Z,1.10
2019-01-29T09:57:11.948Z,0.83
2019-01-29T09:59:38.590Z,1.10
2019-01-29T10:02:05.465Z,1.23
2019-01-29T10:04:32.104Z,0.90
2019-01-29T10:06:58.777Z,1.30
2019-01-29T10:09:25.858Z,0.80
2019-01-29T10:11:52.774Z,1.30
2019-01-29T10:14:21.337Z,1.10
2019-01-29T10:16:48.017Z,1.00
2019-01-29T10:19:14.961Z,0.90
2019-01-29T10:21:42.001Z,1.20
2019-01-29T10:24:08.928Z,0.80
2019-01-29T10:26:35.570Z,1.00
2019-01-29T10:29:02.368Z,0.80
2019-01-29T10:31:29.144Z,1.40
2019-01-29T10:33:56.153Z,1.90
2019-01-29T10:36:23.571Z,2.02
2019-01-29T10:38:54.144Z,1.10
2019-01-29T10:41:21.788Z,1.65
2019-01-29T10:43:51.185Z,1.00
2019-01-29T10:46:18.443Z,1.00
2019-01-29T10:48:45.218Z,1.30
2019-01-29T10:51:12.068Z,0.93
2019-01-29T10:53:40.051Z,1.30
2019-01-29T10:56:06.995Z,0.97
2019-01-29T10:58:33.635Z,2.70
2019-01-29T11:01:00.660Z,1.23
2019-01-29T11:03:27.612Z,4.63
2019-01-29T11:05:54.976Z,2.23
2019-01-29T11:08:24.287Z,1.70
2019-01-29T11:10:53.293Z,0.95
2019-01-29T11:13:22.919Z,1.63
2019-01-29T11:15:52.229Z,1.00
2019-01-29T11:18:21.132Z,1.40
2019-01-29T11:20:48.222Z,0.97
2019-01-29T11:23:17.131Z,1.40
2019-01-29T11:25:46.246Z,1.07
2019-01-29T11:28:16.443Z,1.30
2019-01-29T11:30:43.088Z,0.97
2019-01-29T11:33:10.941Z,1.00
2019-01-29T11:35:41.596Z,1.40
2019-01-29T11:38:09.256Z,2.57
2019-01-29T11:40:36.979Z,1.57
2019-01-29T11:43:04.318Z,1.22
2019-01-29T11:45:35.532Z,1.13
2019-01-29T11:48:03.341Z,3.60
2019-01-29T11:50:32.867Z,1.53
2019-01-29T11:53:02.116Z,1.20
2019-01-29T11:55:36.113Z,1.30
2019-01-29T11:58:05.977Z,0.90
2019-01-29T12:00:34.031Z,1.03
2019-01-29T12:03:01.685Z,1.13
2019-01-29T12:05:31.007Z,0.90
2019-01-29T12:07:58.732Z,1.10
2019-01-29T12:10:28.575Z,2.37
2019-01-29T12:12:58.444Z,1.30
2019-01-29T12:15:26.821Z,1.30
2019-01-29T12:17:58.895Z,1.10
2019-01-29T12:20:25.727Z,2.30
2019-01-29T12:22:55.661Z,2.72
2019-01-29T12:25:25.041Z,1.26
2019-01-29T12:27:52.762Z,0.97
2019-01-29T12:30:23.318Z,0.90
2019-01-29T12:33:07.150Z,1.80
2019-01-29T12:35:38.762Z,1.15
2019-01-29T12:38:05.397Z,1.13
2019-01-29T12:40:32.424Z,1.60
2019-01-29T12:42:59.389Z,0.95
2019-01-29T12:45:26.296Z,1.60
2019-01-29T12:47:58.970Z,1.00
2019-01-29T12:50:22.593Z,2.73
2019-01-29T12:52:50.392Z,2.17
2019-01-29T12:55:18.487Z,1.10
2019-01-29T12:57:49.276Z,1.20
2019-01-29T13:00:18.293Z,1.43
2019-01-29T13:02:46.133Z,0.90
2019-01-29T13:05:16.209Z,0.95
2019-01-29T13:07:43.986Z,1.65
2019-01-29T13:10:11.790Z,1.80
2019-01-29T13:12:41.333Z,0.73
2019-01-29T13:15:08.787Z,1.20
2019-01-29T13:17:38.729Z,2.27
2019-01-29T13:20:14.687Z,1.40
2019-01-29T13:22:38.575Z,1.20
2019-01-29T13:25:11.763Z,2.10
2019-01-29T13:27:38.987Z,9.70
2019-01-29T13:30:10.702Z,2.93
2019-01-29T13:32:41.110Z,1.23
2019-01-29T13:35:08.428Z,1.03
2019-01-29T13:37:35.334Z,2.23
2019-01-29T13:40:06.557Z,2.60
2019-01-29T13:42:33.569Z,2.07
2019-01-29T13:45:01.734Z,2.07
2019-01-29T13:47:32.150Z,1.37
2019-01-29T13:49:59.678Z,1.20
2019-01-29T13:52:28.693Z,1.70
2019-01-29T13:54:59.102Z,2.63
2019-01-29T14:00:17.474Z,1.40
2019-01-29T14:05:34.025Z,0.90
2019-01-29T14:08:02.407Z,1.40
2019-01-29T14:10:33.994Z,1.05
2019-01-29T14:13:01.461Z,1.27
2019-01-29T14:15:30.896Z,1.30
2019-01-29T14:18:01.473Z,1.27
2019-01-29T14:20:28.730Z,2.30
2019-01-29T14:22:59.019Z,2.07
2019-01-29T14:25:26.178Z,1.20
2019-01-29T14:27:53.154Z,1.20
2019-01-29T14:30:22.437Z,1.13
2019-01-29T14:32:52.489Z,0.93
2019-01-29T14:35:19.928Z,3.50
2019-01-29T14:37:46.707Z,1.13
2019-01-29T14:40:15.776Z,1.27
2019-01-29T14:42:46.349Z,2.52
2019-01-29T14:45:17.311Z,1.12
2019-01-29T14:47:45.030Z,1.45
2019-01-29T14:50:21.401Z,1.83
2019-01-29T14:52:43.966Z,4.95
2019-01-29T14:55:12.129Z,2.80
2019-01-29T14:57:48.774Z,2.70
2019-01-29T15:00:12.660Z,2.10
2019-01-29T15:02:39.275Z,1.87
2019-01-29T15:05:06.064Z,1.73
2019-01-29T15:07:33.030Z,1.80
2019-01-29T15:10:00.275Z,1.73
2019-01-29T15:12:29.552Z,1.47
2019-01-29T15:14:57.581Z,5.17
2019-01-29T15:17:26.685Z,6.43
2019-01-29T15:20:00.134Z,8.77
2019-01-29T15:22:28.409Z,9.50
2019-01-29T15:24:59.046Z,7.87
2019-01-29T15:27:28.938Z,8.83
2019-01-29T15:32:44.715Z,6.27
2019-01-29T15:35:12.414Z,8.30
2019-01-29T15:37:40.634Z,10.10
2019-01-29T15:40:09.402Z,8.27
2019-01-29T15:45:27.831Z,9.23
2019-01-29T15:48:14.073Z,11.63
2019-01-29T15:50:42.140Z,12.58
2019-01-29T15:53:10.386Z,12.70
2019-01-29T15:55:40.578Z,16.50
2019-01-29T15:58:08.225Z,13.93
2019-01-29T16:00:38.818Z,16.00
2019-01-29T16:03:09.067Z,15.33
2019-01-29T16:05:36.734Z,18.48
2019-01-29T16:08:04.444Z,18.27
2019-01-29T16:10:39.543Z,17.02
2019-01-29T16:13:01.922Z,15.37
2019-01-29T16:15:33.003Z,13.60
2019-01-29T16:18:00.450Z,15.47
2019-01-29T16:20:29.035Z,14.00
2019-01-29T16:22:59.899Z,18.15
2019-01-29T16:25:31.643Z,12.22
2019-01-29T16:27:59.543Z,17.60
2019-01-29T16:30:30.863Z,12.78
2019-01-29T16:32:58.736Z,11.43
2019-01-29T16:35:27.013Z,12.97
2019-01-29T16:37:53.716Z,10.27
2019-01-29T16:40:20.821Z,12.60
2019-01-29T16:42:47.769Z,11.70
2019-01-29T16:45:15.023Z,14.47
2019-01-29T16:47:41.893Z,12.27
2019-01-29T16:50:08.742Z,13.47
2019-01-29T16:52:35.517Z,16.53
2019-01-29T16:55:02.236Z,13.53
2019-01-29T16:57:31.787Z,13.93
2019-01-29T16:59:57.473Z,19.43
2019-01-29T17:02:24.160Z,14.00
2019-01-29T17:04:50.991Z,20.73
2019-01-29T17:07:18.010Z,15.32
2019-01-29T17:09:44.702Z,15.00
2019-01-29T17:12:11.445Z,15.50
2019-01-29T17:14:38.136Z,13.33
2019-01-29T17:17:04.772Z,13.60
2019-01-29T17:19:31.423Z,11.63
2019-01-29T17:21:58.352Z,12.60
2019-01-29T17:24:25.343Z,16.43
2019-01-29T17:26:52.284Z,13.47
2019-01-29T17:29:18.883Z,13.83
2019-01-29T17:31:45.525Z,12.13
2019-01-29T17:34:12.378Z,15.80
2019-01-29T17:36:39.447Z,12.25
2019-01-29T17:39:06.498Z,15.60
2019-01-29T17:41:33.865Z,18.67
2019-01-29T17:44:00.504Z,20.07
2019-01-29T17:46:27.916Z,17.90
2019-01-29T17:48:54.514Z,18.40
2019-01-29T17:51:21.440Z,17.75
2019-01-29T17:53:48.070Z,19.37
2019-01-29T17:56:15.017Z,16.53
2019-01-29T17:58:41.871Z,19.67
2019-01-29T18:01:08.724Z,13.67
2019-01-29T18:03:35.861Z,14.95
2019-01-29T18:06:02.948Z,17.00
2019-01-29T18:08:29.782Z,19.07
2019-01-29T18:10:58.157Z,17.96
2019-01-29T18:13:24.873Z,21.43
2019-01-29T18:15:51.843Z,22.70
2019-01-29T18:18:18.736Z,21.12
2019-01-29T18:20:45.930Z,21.97
2019-01-29T18:23:12.921Z,21.42
2019-01-29T18:25:39.563Z,19.03
2019-01-29T18:28:08.516Z,29.95
2019-01-29T18:30:34.806Z,21.33
2019-01-29T18:33:01.694Z,23.73
2019-01-29T18:35:28.640Z,22.97
2019-01-29T18:37:56.374Z,24.97
2019-01-29T18:40:23.356Z,30.33
2019-01-29T18:43:05.264Z,20.82
2019-01-29T18:48:12.485Z,23.40
2019-01-29T18:50:42.036Z,24.37
2019-01-29T18:53:09.789Z,29.00
2019-01-29T18:55:40.885Z,21.52
2019-01-29T18:58:12.096Z,29.15
2019-01-29T19:00:40.546Z,27.80
2019-01-29T19:03:07.872Z,20.90
2019-01-29T19:05:46.128Z,26.02
2019-01-29T19:08:18.062Z,29.63
2019-01-29T19:10:47.903Z,22.63
2019-01-29T19:13:17.484Z,25.13
2019-01-29T19:15:44.099Z,22.47
2019-01-29T19:18:13.746Z,23.27
2019-01-29T19:20:40.379Z,28.43
2019-01-29T19:23:13.476Z,23.00
2019-01-29T19:25:40.298Z,34.92
2019-01-29T19:28:07.998Z,60.85
2019-01-29T19:33:22.501Z,38.87
2019-01-29T19:35:50.207Z,34.00
2019-01-29T19:38:18.129Z,30.23
2019-01-29T19:40:45.838Z,26.50
2019-01-29T19:43:16.092Z,26.17
2019-01-29T19:45:46.013Z,30.87
2019-01-29T19:48:15.506Z,28.30
2019-01-29T19:50:42.625Z,24.30
2019-01-29T19:53:10.608Z,29.90
2019-01-29T19:55:38.772Z,28.10
2019-01-29T19:58:09.303Z,30.57
2019-01-29T20:00:37.538Z,25.30
2019-01-29T20:03:08.961Z,26.87
2019-01-29T20:05:37.147Z,26.30
2019-01-29T20:08:06.531Z,23.90
2019-01-29T20:10:37.587Z,26.63
2019-01-29T20:13:06.841Z,27.52
2019-01-29T20:15:35.762Z,23.05
2019-01-29T20:18:05.951Z,26.93
2019-01-29T20:20:36.918Z,25.97
2019-01-29T20:23:08.463Z,25.53
2019-01-29T20:25:36.353Z,25.70
2019-01-29T20:28:06.644Z,26.57
2019-01-29T20:30:38.998Z,31.27
2019-01-29T20:33:08.655Z,30.17
2019-01-29T20:35:37.315Z,28.40
2019-01-29T20:40:36.025Z,31.83
2019-01-29T20:45:51.527Z,24.93
2019-01-29T20:48:22.992Z,25.03
2019-01-29T20:50:54.140Z,23.93
2019-01-29T20:53:34.734Z,26.40
2019-01-29T20:56:02.206Z,26.40
2019-01-29T20:58:30.137Z,28.93
2019-01-29T21:01:00.067Z,26.03
2019-01-29T21:03:26.446Z,27.23
2019-01-29T21:05:53.455Z,26.83
2019-01-29T21:08:20.584Z,27.27
2019-01-29T21:10:47.590Z,26.63
2019-01-29T21:13:14.518Z,24.87
2019-01-29T21:15:41.451Z,26.85
2019-01-29T21:18:11.739Z,25.70
2019-01-29T21:20:39.097Z,26.93
2019-01-29T21:23:09.868Z,25.27
2019-01-29T21:25:39.000Z,25.90
2019-01-29T21:28:09.958Z,24.67
2019-01-29T21:30:38.977Z,23.03
2019-01-29T21:33:06.087Z,25.43
2019-01-29T21:35:32.998Z,23.37
2019-01-29T21:37:59.954Z,25.47
2019-01-29T21:40:34.876Z,24.77
2019-01-29T21:43:08.973Z,22.98
2019-01-29T21:48:29.280Z,25.00
2019-01-29T21:50:58.447Z,26.73
2019-01-29T21:56:12.794Z,26.65
2019-01-29T21:58:42.468Z,23.97
2019-01-29T22:01:13.639Z,24.65
2019-01-29T22:03:40.414Z,23.87
2019-01-29T22:06:07.309Z,22.87
2019-01-29T22:08:33.943Z,19.37
2019-01-29T22:11:01.959Z,22.95
2019-01-29T22:13:28.616Z,19.43
2019-01-29T22:15:55.553Z,24.47
2019-01-29T22:18:22.415Z,21.03
2019-01-29T22:20:49.018Z,23.63
2019-01-29T22:23:15.722Z,21.40
2019-01-29T22:25:42.472Z,19.77
2019-01-29T22:28:09.093Z,22.87
2019-01-29T22:30:35.855Z,21.17
2019-01-29T22:33:02.764Z,20.15
2019-01-29T22:35:29.383Z,21.83
2019-01-29T22:37:56.114Z,22.07
2019-01-29T22:40:23.041Z,22.20
2019-01-29T22:42:49.805Z,24.37
2019-01-29T22:45:16.468Z,20.83
2019-01-29T22:47:43.541Z,19.93
2019-01-29T22:50:10.394Z,19.73
2019-01-29T22:52:37.356Z,19.53
2019-01-29T22:55:04.466Z,16.70
2019-01-29T23:00:19.724Z,16.53
2019-01-29T23:02:46.448Z,18.00
2019-01-29T23:05:13.273Z,20.50
2019-01-29T23:07:40.061Z,18.03
2019-01-29T23:10:06.742Z,18.85
2019-01-29T23:12:36.947Z,18.50
2019-01-29T23:15:21.690Z,18.43
2019-01-29T23:17:53.069Z,19.03
2019-01-29T23:20:20.678Z,16.20
2019-01-29T23:22:50.349Z,18.75
2019-01-29T23:25:19.522Z,15.07
2019-01-29T23:27:47.278Z,17.17
2019-01-29T23:30:18.553Z,21.80
2019-01-29T23:32:46.634Z,18.20
2019-01-29T23:35:19.855Z,16.20
2019-01-29T23:37:47.221Z,18.27
2019-01-29T23:40:14.674Z,20.53
2019-01-29T23:42:45.603Z,15.57
2019-01-29T23:45:13.278Z,14.60
2019-01-29T23:47:46.771Z,17.82
2019-01-29T23:53:03.017Z,17.13
2019-01-29T23:55:32.938Z,18.87
2019-01-29T23:58:00.256Z,17.70
